Terminal Aerodrome Forecast
Issued by NWS

Home | Current Version | Previous Version | Graphics & Text | Print | Product List | Glossary On
Versions: 1 2 3 4 5 6 7 8 9 10 11 12 13 14 15 16 17 18 19 20 21 22
000
FTUS42 KMHX 021123
TAFOAJ
TAF
KOAJ 021123Z 0212/0312 20004KT P6SM SCT035
     FM021700 20007KT P6SM VCTS BKN035CB
     FM030100 10004KT P6SM VCSH OVC050
     FM030600 08004KT 5SM BR OVC040
     FM030900 VRB03KT 3SM BR OVC030
      AMD LTD TO CLD VIS AND WIND=

USA.gov is the U.S. government's official web portal to all federal, state and local government web resources and services.